Brandon, FL (33508)

8:10 AM EDT on May 04, 2015 (GMT -0400)
Brandon Lakes | | Change Station
CLOSE
Current Station
Personal Weather Station
Location: Valrico, FL
Elevation: 70 ft
Nearby Weather Stations
Active Advisory: Fire Weather Warning

Elev 70 ft 27.96 °N, 82.27 °W | Updated 3 seconds ago

Partly Cloudy
Partly Cloudy
64.4 °F
Feels Like 64.4 °F
N
0.0
Wind Variable Wind from ESE
Gusts 0.0 mph

Today
High -- | Low -- °F
--% Chance of Precip.
Yesterday
High -- | Low -- °F
Precip. -- in
6:47 AM 8:05 PM
Full, 100% visible
Pressure 30.20 in
Visibility 10.0 miles
Clouds Clear
Dew Point 63 °F
Humidity 94%
Rainfall 0.00 in
Snow Depth Not available.
UV 1 out of 12
Pollen 6.10 out of 12
Air Quality Not available.
Flu Activity Local Activity
METAR KVDF 041155Z AUTO 00000KT 10SM CLR 17/16 A3020 RMK AO2

More Conditions Fewer Conditions

Pressure 30.20 in
Visibility 10.0 miles
Clouds Clear
Dew Point 63 °F
Humidity 94%
Rainfall 0.00 in
Snow Depth Not available.
UV 1 out of 12
Pollen 6.10 out of 12
Air Quality Not available.
Flu Activity Local Activity
METAR KVDF 041155Z AUTO 00000KT 10SM CLR 17/16 A3020 RMK AO2

More Conditions Fewer Conditions

Nepal has a long way to go to dig out and rebuild from a devastating earthquake. We have teamed up with several charities and organizations to make contributing to the relief effort as easy as possible.
How you can help: Portlight Strategies | Red Cross

10-Day Weather Forecast

Almanac

Astronomy

May. 04, 2015 Rise Set
Actual Time
Civil Twilight
Nautical Twilight
Astronomical Twilight
Moon
Length of Visible Light
Length of Day
Tomorrow will be .
, % of the Moon is Illuminated

Today's Extremes

State Highs State Lows

Community

WunderPhotos

Upload Photos

1,818,580 photos uploaded!

WunderBlogs® & News

Nearby

Air Quality

  Air Quality AQ Index Pollutant
Not available.

Snow Depth

Station Depth Elevation

Earthquake Activity

City Distance Mag. Time & Date
Minimum magnitude displayed is 2.5.

Coastal Water Temperatures

Place Temperature

Stations

Nearby Weather Stations

Station Location Temp. Windchill Dew Point Humidity Wind Precip. Elev Updated Type
                   
Fire Weather Warning
Statement as of 3:55 AM EDT on May 04, 2015

... Red flag warning remains in effect from 2 PM this afternoon to
6 PM EDT this evening for a combination of breezy winds... low
humidity... and high erc values...

* affected area... Hardee... inland Hillsborough... inland
Manatee... and inland Sarasota counties.

* Wind... sustained 15-20 mph with higher gusts.

* Humidity... 31-35 percent.

* Erc... 29-34.

* Impacts... any fires that develop will likely spread rapidly.
Outdoor burning is not recommended.

Precautionary/preparedness actions...

A red flag warning is issued when very favorable conditions for
the spread of wildfire are occurring now... or will occur within
24 hours.